sensor_id;sensor_type;location;lat;lon;timestamp;P1;P2;P0
24012;PMS7003;12220;50.194;18.948;2022-11-15T00:01:22;24;22;15
24012;PMS7003;12220;50.194;18.948;2022-11-15T00:03:24;28;21;14
24012;PMS7003;12220;50.194;18.948;2022-11-15T00:05:26;30;22;15
24012;PMS7003;12220;50.194;18.948;2022-11-15T00:07:27;26;24;15
24012;PMS7003;12220;50.194;18.948;2022-11-15T00:09:37;30;23;13
24012;PMS7003;12220;50.194;18.948;2022-11-15T00:11:38;32;28;16
24012;PMS7003;12220;50.194;18.948;2022-11-15T00:13:39;25;23;13
24012;PMS7003;12220;50.194;18.948;2022-11-15T00:15:41;25;23;14
24012;PMS7003;12220;50.194;18.948;2022-11-15T00:17:53;26;24;14
24012;PMS7003;12220;50.194;18.948;2022-11-15T00:19:54;24;23;12
24012;PMS7003;12220;50.194;18.948;2022-11-15T00:21:55;26;25;13
24012;PMS7003;12220;50.194;18.948;2022-11-15T00:23:56;29;24;15
24012;PMS7003;12220;50.194;18.948;2022-11-15T00:26:10;29;25;17
24012;PMS7003;12220;50.194;18.948;2022-11-15T00:28:13;26;21;14
24012;PMS7003;12220;50.194;18.948;2022-11-15T00:30:14;26;24;17
24012;PMS7003;12220;50.194;18.948;2022-11-15T00:32:16;35;30;19
24012;PMS7003;12220;50.194;18.948;2022-11-15T00:34:23;32;28;17
24012;PMS7003;12220;50.194;18.948;2022-11-15T00:36:24;22;18;9
24012;PMS7003;12220;50.194;18.948;2022-11-15T00:38:25;25;22;13
24012;PMS7003;12220;50.194;18.948;2022-11-15T00:40:26;29;25;16
24012;PMS7003;12220;50.194;18.948;2022-11-15T00:42:38;28;21;11
24012;PMS7003;12220;50.194;18.948;2022-11-15T00:44:39;29;27;17
24012;PMS7003;12220;50.194;18.948;2022-11-15T00:46:40;40;30;19
24012;PMS7003;12220;50.194;18.948;2022-11-15T00:48:41;24;22;17
24012;PMS7003;12220;50.194;18.948;2022-11-15T00:50:53;27;25;14
24012;PMS7003;12220;50.194;18.948;2022-11-15T00:52:54;31;29;18
24012;PMS7003;12220;50.194;18.948;2022-11-15T00:54:55;26;22;11
24012;PMS7003;12220;50.194;18.948;2022-11-15T00:56:56;40;29;15
24012;PMS7003;12220;50.194;18.948;2022-11-15T00:59:08;21;21;14
24012;PMS7003;12220;50.194;18.948;2022-11-15T01:01:10;19;15;9
24012;PMS7003;12220;50.194;18.948;2022-11-15T01:03:14;32;26;18
24012;PMS7003;12220;50.194;18.948;2022-11-15T01:05:15;24;24;16
24012;PMS7003;12220;50.194;18.948;2022-11-15T01:07:23;31;23;14
24012;PMS7003;12220;50.194;18.948;2022-11-15T01:09:24;29;27;18
24012;PMS7003;12220;50.194;18.948;2022-11-15T01:11:25;21;19;11
24012;PMS7003;12220;50.194;18.948;2022-11-15T01:13:29;37;21;14
24012;PMS7003;12220;50.194;18.948;2022-11-15T01:15:41;26;21;14
24012;PMS7003;12220;50.194;18.948;2022-11-15T01:17:43;23;16;11
24012;PMS7003;12220;50.194;18.948;2022-11-15T01:19:44;24;20;13
24012;PMS7003;12220;50.194;18.948;2022-11-15T01:21:45;18;18;13
24012;PMS7003;12220;50.194;18.948;2022-11-15T01:23:53;24;24;13
24012;PMS7003;12220;50.194;18.948;2022-11-15T01:25:59;18;18;11
24012;PMS7003;12220;50.194;18.948;2022-11-15T01:28:01;20;16;12
24012;PMS7003;12220;50.194;18.948;2022-11-15T01:30:03;28;22;13
24012;PMS7003;12220;50.194;18.948;2022-11-15T01:32:08;33;25;17
24012;PMS7003;12220;50.194;18.948;2022-11-15T01:34:09;28;20;12
24012;PMS7003;12220;50.194;18.948;2022-11-15T01:38:22;19;17;14
24012;PMS7003;12220;50.194;18.948;2022-11-15T01:40:23;28;25;17
24012;PMS7003;12220;50.194;18.948;2022-11-15T01:42:25;22;20;12
24012;PMS7003;12220;50.194;18.948;2022-11-15T01:46:40;23;19;13
24012;PMS7003;12220;50.194;18.948;2022-11-15T01:48:47;27;17;9
24012;PMS7003;12220;50.194;18.948;2022-11-15T01:51:00;26;25;18
24012;PMS7003;12220;50.194;18.948;2022-11-15T01:53:06;31;25;16
24012;PMS7003;12220;50.194;18.948;2022-11-15T01:57:23;27;23;14
24012;PMS7003;12220;50.194;18.948;2022-11-15T01:59:24;21;18;10
24012;PMS7003;12220;50.194;18.948;2022-11-15T02:01:36;34;26;14
24012;PMS7003;12220;50.194;18.948;2022-11-15T02:03:49;30;27;16
24012;PMS7003;12220;50.194;18.948;2022-11-15T02:05:53;16;16;11
24012;PMS7003;12220;50.194;18.948;2022-11-15T02:07:54;26;16;13
24012;PMS7003;12220;50.194;18.948;2022-11-15T02:10:02;20;19;13
24012;PMS7003;12220;50.194;18.948;2022-11-15T02:12:19;33;24;16
24012;PMS7003;12220;50.194;18.948;2022-11-15T02:14:22;35;25;16
24012;PMS7003;12220;50.194;18.948;2022-11-15T02:18:41;31;20;13
24012;PMS7003;12220;50.194;18.948;2022-11-15T02:21:00;28;23;16
24012;PMS7003;12220;50.194;18.948;2022-11-15T02:32:24;37;31;19
24012;PMS7003;12220;50.194;18.948;2022-11-15T02:41:48;32;27;16
24012;PMS7003;12220;50.194;18.948;2022-11-15T02:43:56;33;28;17
24012;PMS7003;12220;50.194;18.948;2022-11-15T02:48:17;32;26;16
24012;PMS7003;12220;50.194;18.948;2022-11-15T02:50:23;18;18;11
24012;PMS7003;12220;50.194;18.948;2022-11-15T02:52:31;33;25;15
24012;PMS7003;12220;50.194;18.948;2022-11-15T02:54:33;25;20;13
24012;PMS7003;12220;50.194;18.948;2022-11-15T02:56:34;23;18;14
24012;PMS7003;12220;50.194;18.948;2022-11-15T03:00:55;38;28;18
24012;PMS7003;12220;50.194;18.948;2022-11-15T03:08:01;29;24;18
24012;PMS7003;12220;50.194;18.948;2022-11-15T03:10:13;27;20;14
24012;PMS7003;12220;50.194;18.948;2022-11-15T03:12:40;25;25;16
24012;PMS7003;12220;50.194;18.948;2022-11-15T03:21:39;25;22;15
24012;PMS7003;12220;50.194;18.948;2022-11-15T03:23:41;28;26;18
24012;PMS7003;12220;50.194;18.948;2022-11-15T03:25:45;30;25;13
24012;PMS7003;12220;50.194;18.948;2022-11-15T03:27:51;26;22;14
24012;PMS7003;12220;50.194;18.948;2022-11-15T03:29:56;30;27;16
24012;PMS7003;12220;50.194;18.948;2022-11-15T03:32:03;35;28;20
24012;PMS7003;12220;50.194;18.948;2022-11-15T03:34:10;28;26;17
24012;PMS7003;12220;50.194;18.948;2022-11-15T03:36:22;24;23;14
24012;PMS7003;12220;50.194;18.948;2022-11-15T03:38:26;36;29;16
24012;PMS7003;12220;50.194;18.948;2022-11-15T03:40:34;31;29;19
24012;PMS7003;12220;50.194;18.948;2022-11-15T03:42:46;29;28;17
24012;PMS7003;12220;50.194;18.948;2022-11-15T03:47:10;29;26;16
24012;PMS7003;12220;50.194;18.948;2022-11-15T03:49:24;31;26;16
24012;PMS7003;12220;50.194;18.948;2022-11-15T03:51:41;29;23;15
24012;PMS7003;12220;50.194;18.948;2022-11-15T03:53:42;31;25;15
24012;PMS7003;12220;50.194;18.948;2022-11-15T03:55:43;28;22;15
24012;PMS7003;12220;50.194;18.948;2022-11-15T03:57:44;32;23;15
24012;PMS7003;12220;50.194;18.948;2022-11-15T03:59:56;34;30;18
24012;PMS7003;12220;50.194;18.948;2022-11-15T04:01:58;33;25;14
24012;PMS7003;12220;50.194;18.948;2022-11-15T04:03:59;33;25;17
24012;PMS7003;12220;50.194;18.948;2022-11-15T04:06:00;29;27;17
24012;PMS7003;12220;50.194;18.948;2022-11-15T04:08:01;32;30;15
24012;PMS7003;12220;50.194;18.948;2022-11-15T04:10:03;35;29;17
24012;PMS7003;12220;50.194;18.948;2022-11-15T04:12:05;28;25;17
24012;PMS7003;12220;50.194;18.948;2022-11-15T04:14:07;29;24;14
24012;PMS7003;12220;50.194;18.948;2022-11-15T04:16:08;31;28;16
24012;PMS7003;12220;50.194;18.948;2022-11-15T04:18:10;36;28;19
24012;PMS7003;12220;50.194;18.948;2022-11-15T04:20:12;33;24;14
24012;PMS7003;12220;50.194;18.948;2022-11-15T04:22:30;30;23;14
24012;PMS7003;12220;50.194;18.948;2022-11-15T04:24:44;30;17;11
24012;PMS7003;12220;50.194;18.948;2022-11-15T04:26:45;31;26;15
24012;PMS7003;12220;50.194;18.948;2022-11-15T04:28:46;37;27;17
24012;PMS7003;12220;50.194;18.948;2022-11-15T04:30:59;32;24;16
24012;PMS7003;12220;50.194;18.948;2022-11-15T04:33:00;23;21;13
24012;PMS7003;12220;50.194;18.948;2022-11-15T04:35:02;32;26;17
24012;PMS7003;12220;50.194;18.948;2022-11-15T04:37:03;30;26;17
24012;PMS7003;12220;50.194;18.948;2022-11-15T04:39:13;35;30;16
24012;PMS7003;12220;50.194;18.948;2022-11-15T04:41:15;26;22;12
24012;PMS7003;12220;50.194;18.948;2022-11-15T04:43:16;20;19;14
24012;PMS7003;12220;50.194;18.948;2022-11-15T04:45:17;22;18;12
24012;PMS7003;12220;50.194;18.948;2022-11-15T04:47:18;16;16;11
24012;PMS7003;12220;50.194;18.948;2022-11-15T04:49:29;12;10;6
24012;PMS7003;12220;50.194;18.948;2022-11-15T04:51:30;27;19;12
24012;PMS7003;12220;50.194;18.948;2022-11-15T04:53:31;22;18;11
24012;PMS7003;12220;50.194;18.948;2022-11-15T04:55:33;21;18;11
24012;PMS7003;12220;50.194;18.948;2022-11-15T04:57:44;27;25;13
24012;PMS7003;12220;50.194;18.948;2022-11-15T04:59:45;14;13;7
24012;PMS7003;12220;50.194;18.948;2022-11-15T05:01:47;22;20;13
24012;PMS7003;12220;50.194;18.948;2022-11-15T05:03:48;21;20;12
24012;PMS7003;12220;50.194;18.948;2022-11-15T05:06:01;29;25;15
24012;PMS7003;12220;50.194;18.948;2022-11-15T05:08:03;32;26;15
24012;PMS7003;12220;50.194;18.948;2022-11-15T05:10:05;31;22;15
24012;PMS7003;12220;50.194;18.948;2022-11-15T05:12:06;29;21;13
24012;PMS7003;12220;50.194;18.948;2022-11-15T05:14:14;23;22;17
24012;PMS7003;12220;50.194;18.948;2022-11-15T05:16:16;25;24;16
24012;PMS7003;12220;50.194;18.948;2022-11-15T05:18:17;25;24;16
24012;PMS7003;12220;50.194;18.948;2022-11-15T05:20:18;30;23;14
24012;PMS7003;12220;50.194;18.948;2022-11-15T05:22:29;27;25;17
24012;PMS7003;12220;50.194;18.948;2022-11-15T05:24:31;20;17;11
24012;PMS7003;12220;50.194;18.948;2022-11-15T05:26:32;37;25;15
24012;PMS7003;12220;50.194;18.948;2022-11-15T05:28:33;21;18;11
24012;PMS7003;12220;50.194;18.948;2022-11-15T05:30:45;14;14;9
24012;PMS7003;12220;50.194;18.948;2022-11-15T05:32:46;32;23;13
24012;PMS7003;12220;50.194;18.948;2022-11-15T05:34:48;25;21;13
24012;PMS7003;12220;50.194;18.948;2022-11-15T05:36:49;30;23;14
24012;PMS7003;12220;50.194;18.948;2022-11-15T05:39:01;29;23;15
24012;PMS7003;12220;50.194;18.948;2022-11-15T05:41:02;28;25;14
24012;PMS7003;12220;50.194;18.948;2022-11-15T05:43:05;18;17;13
24012;PMS7003;12220;50.194;18.948;2022-11-15T05:45:06;22;22;14
24012;PMS7003;12220;50.194;18.948;2022-11-15T05:47:17;32;24;14
24012;PMS7003;12220;50.194;18.948;2022-11-15T05:49:25;31;25;15
24012;PMS7003;12220;50.194;18.948;2022-11-15T05:51:30;24;23;16
24012;PMS7003;12220;50.194;18.948;2022-11-15T05:53:31;33;24;16
24012;PMS7003;12220;50.194;18.948;2022-11-15T05:55:36;26;19;14
24012;PMS7003;12220;50.194;18.948;2022-11-15T05:57:39;35;29;17
24012;PMS7003;12220;50.194;18.948;2022-11-15T05:59:41;29;26;18
24012;PMS7003;12220;50.194;18.948;2022-11-15T06:01:44;35;28;16
24012;PMS7003;12220;50.194;18.948;2022-11-15T06:03:50;28;24;16
24012;PMS7003;12220;50.194;18.948;2022-11-15T06:05:52;28;23;14
24012;PMS7003;12220;50.194;18.948;2022-11-15T06:07:56;23;21;14
24012;PMS7003;12220;50.194;18.948;2022-11-15T06:09:59;23;20;14
24012;PMS7003;12220;50.194;18.948;2022-11-15T06:12:06;25;23;15
24012;PMS7003;12220;50.194;18.948;2022-11-15T06:14:07;29;26;19
24012;PMS7003;12220;50.194;18.948;2022-11-15T06:16:08;26;24;17
24012;PMS7003;12220;50.194;18.948;2022-11-15T06:18:09;16;16;11
24012;PMS7003;12220;50.194;18.948;2022-11-15T06:20:10;26;24;14
24012;PMS7003;12220;50.194;18.948;2022-11-15T06:22:12;27;23;15
24012;PMS7003;12220;50.194;18.948;2022-11-15T06:24:13;31;26;18
24012;PMS7003;12220;50.194;18.948;2022-11-15T06:26:17;30;27;16
24012;PMS7003;12220;50.194;18.948;2022-11-15T06:28:18;30;29;18
24012;PMS7003;12220;50.194;18.948;2022-11-15T06:30:19;30;27;17
24012;PMS7003;12220;50.194;18.948;2022-11-15T06:32:21;35;26;17
24012;PMS7003;12220;50.194;18.948;2022-11-15T06:34:32;23;21;13
24012;PMS7003;12220;50.194;18.948;2022-11-15T06:36:36;21;20;15
24012;PMS7003;12220;50.194;18.948;2022-11-15T06:38:37;29;24;14
24012;PMS7003;12220;50.194;18.948;2022-11-15T06:40:39;29;24;16
24012;PMS7003;12220;50.194;18.948;2022-11-15T06:42:47;28;22;14
24012;PMS7003;12220;50.194;18.948;2022-11-15T06:44:48;30;24;12
24012;PMS7003;12220;50.194;18.948;2022-11-15T06:46:49;26;22;14
24012;PMS7003;12220;50.194;18.948;2022-11-15T06:48:51;30;22;14
24012;PMS7003;12220;50.194;18.948;2022-11-15T06:51:02;21;21;15
24012;PMS7003;12220;50.194;18.948;2022-11-15T06:53:05;28;21;12
24012;PMS7003;12220;50.194;18.948;2022-11-15T06:55:06;24;17;11
24012;PMS7003;12220;50.194;18.948;2022-11-15T06:57:08;29;21;15
24012;PMS7003;12220;50.194;18.948;2022-11-15T06:59:17;40;33;22
24012;PMS7003;12220;50.194;18.948;2022-11-15T07:01:18;38;31;22
24012;PMS7003;12220;50.194;18.948;2022-11-15T07:03:19;32;27;17
24012;PMS7003;12220;50.194;18.948;2022-11-15T07:05:20;28;22;16
24012;PMS7003;12220;50.194;18.948;2022-11-15T07:07:33;31;24;15
24012;PMS7003;12220;50.194;18.948;2022-11-15T07:09:34;29;27;18
24012;PMS7003;12220;50.194;18.948;2022-11-15T07:11:35;33;25;14
24012;PMS7003;12220;50.194;18.948;2022-11-15T07:13:36;27;25;17
24012;PMS7003;12220;50.194;18.948;2022-11-15T07:15:48;25;22;14
24012;PMS7003;12220;50.194;18.948;2022-11-15T07:17:49;22;18;12
24012;PMS7003;12220;50.194;18.948;2022-11-15T07:19:51;23;20;15
24012;PMS7003;12220;50.194;18.948;2022-11-15T07:21:52;19;18;14
24012;PMS7003;12220;50.194;18.948;2022-11-15T07:24:03;26;20;13
24012;PMS7003;12220;50.194;18.948;2022-11-15T07:26:05;30;26;17
24012;PMS7003;12220;50.194;18.948;2022-11-15T07:28:07;27;23;15
24012;PMS7003;12220;50.194;18.948;2022-11-15T07:30:09;28;21;15
24012;PMS7003;12220;50.194;18.948;2022-11-15T07:32:18;27;26;17
24012;PMS7003;12220;50.194;18.948;2022-11-15T07:34:19;31;24;14
24012;PMS7003;12220;50.194;18.948;2022-11-15T07:36:20;32;24;17
24012;PMS7003;12220;50.194;18.948;2022-11-15T07:38:22;28;21;14
24012;PMS7003;12220;50.194;18.948;2022-11-15T07:40:33;35;29;18
24012;PMS7003;12220;50.194;18.948;2022-11-15T07:42:35;32;26;15
24012;PMS7003;12220;50.194;18.948;2022-11-15T07:44:48;27;26;13
24012;PMS7003;12220;50.194;18.948;2022-11-15T07:46:49;28;22;15
24012;PMS7003;12220;50.194;18.948;2022-11-15T07:48:53;34;29;18
24012;PMS7003;12220;50.194;18.948;2022-11-15T07:50:54;27;23;16
24012;PMS7003;12220;50.194;18.948;2022-11-15T07:52:55;34;26;17
24012;PMS7003;12220;50.194;18.948;2022-11-15T07:54:57;35;26;19
24012;PMS7003;12220;50.194;18.948;2022-11-15T07:57:08;35;30;19
24012;PMS7003;12220;50.194;18.948;2022-11-15T07:59:10;29;27;18
24012;PMS7003;12220;50.194;18.948;2022-11-15T08:01:11;39;28;15
24012;PMS7003;12220;50.194;18.948;2022-11-15T08:03:14;33;31;20
24012;PMS7003;12220;50.194;18.948;2022-11-15T08:05:24;28;23;18
24012;PMS7003;12220;50.194;18.948;2022-11-15T08:07:27;36;33;21
24012;PMS7003;12220;50.194;18.948;2022-11-15T08:09:30;47;37;22
24012;PMS7003;12220;50.194;18.948;2022-11-15T08:11:31;38;31;20
24012;PMS7003;12220;50.194;18.948;2022-11-15T08:13:39;35;31;21
24012;PMS7003;12220;50.194;18.948;2022-11-15T08:15:40;45;34;19
24012;PMS7003;12220;50.194;18.948;2022-11-15T08:17:41;46;36;24
24012;PMS7003;12220;50.194;18.948;2022-11-15T08:19:42;40;33;23
24012;PMS7003;12220;50.194;18.948;2022-11-15T08:21:54;32;28;20
24012;PMS7003;12220;50.194;18.948;2022-11-15T08:23:55;43;31;20
24012;PMS7003;12220;50.194;18.948;2022-11-15T08:26:02;46;37;23
24012;PMS7003;12220;50.194;18.948;2022-11-15T08:28:05;38;33;20
24012;PMS7003;12220;50.194;18.948;2022-11-15T08:30:09;43;36;23
24012;PMS7003;12220;50.194;18.948;2022-11-15T08:32:16;42;30;20
24012;PMS7003;12220;50.194;18.948;2022-11-15T08:34:18;39;33;21
24012;PMS7003;12220;50.194;18.948;2022-11-15T08:36:19;38;33;21
24012;PMS7003;12220;50.194;18.948;2022-11-15T08:38:24;35;30;15
24012;PMS7003;12220;50.194;18.948;2022-11-15T08:40:26;37;31;19
24012;PMS7003;12220;50.194;18.948;2022-11-15T08:42:27;38;30;20
24012;PMS7003;12220;50.194;18.948;2022-11-15T08:44:28;40;33;22
24012;PMS7003;12220;50.194;18.948;2022-11-15T08:46:39;44;36;21
24012;PMS7003;12220;50.194;18.948;2022-11-15T08:48:40;37;32;21
24012;PMS7003;12220;50.194;18.948;2022-11-15T08:50:41;33;29;20
24012;PMS7003;12220;50.194;18.948;2022-11-15T08:52:44;36;29;19
24012;PMS7003;12220;50.194;18.948;2022-11-15T08:54:54;48;38;23
24012;PMS7003;12220;50.194;18.948;2022-11-15T08:56:55;43;32;22
24012;PMS7003;12220;50.194;18.948;2022-11-15T08:58:56;47;38;22
24012;PMS7003;12220;50.194;18.948;2022-11-15T09:00:58;39;32;22
24012;PMS7003;12220;50.194;18.948;2022-11-15T09:03:09;47;37;21
24012;PMS7003;12220;50.194;18.948;2022-11-15T09:05:10;44;33;20
24012;PMS7003;12220;50.194;18.948;2022-11-15T09:07:12;31;27;14
24012;PMS7003;12220;50.194;18.948;2022-11-15T09:09:14;49;31;20
24012;PMS7003;12220;50.194;18.948;2022-11-15T09:11:24;46;38;23
24012;PMS7003;12220;50.194;18.948;2022-11-15T09:13:27;55;38;20
24012;PMS7003;12220;50.194;18.948;2022-11-15T09:15:28;54;40;26
24012;PMS7003;12220;50.194;18.948;2022-11-15T09:17:29;56;43;27
24012;PMS7003;12220;50.194;18.948;2022-11-15T09:19:39;52;41;26
24012;PMS7003;12220;50.194;18.948;2022-11-15T09:21:40;48;37;23
24012;PMS7003;12220;50.194;18.948;2022-11-15T09:23:42;52;41;26
24012;PMS7003;12220;50.194;18.948;2022-11-15T09:25:43;55;44;28
24012;PMS7003;12220;50.194;18.948;2022-11-15T09:27:55;51;40;25
24012;PMS7003;12220;50.194;18.948;2022-11-15T09:29:57;52;41;26
24012;PMS7003;12220;50.194;18.948;2022-11-15T09:31:58;50;41;25
24012;PMS7003;12220;50.194;18.948;2022-11-15T09:33:59;55;46;29
24012;PMS7003;12220;50.194;18.948;2022-11-15T09:36:10;65;50;30
24012;PMS7003;12220;50.194;18.948;2022-11-15T09:38:12;58;47;29
24012;PMS7003;12220;50.194;18.948;2022-11-15T09:40:14;71;54;33
24012;PMS7003;12220;50.194;18.948;2022-11-15T09:44:38;53;45;30
24012;PMS7003;12220;50.194;18.948;2022-11-15T09:49:08;65;50;31
24012;PMS7003;12220;50.194;18.948;2022-11-15T09:53:24;66;52;30
24012;PMS7003;12220;50.194;18.948;2022-11-15T09:55:33;62;49;29
24012;PMS7003;12220;50.194;18.948;2022-11-15T10:04:31;61;46;29
24012;PMS7003;12220;50.194;18.948;2022-11-15T10:06:32;51;42;26
24012;PMS7003;12220;50.194;18.948;2022-11-15T10:10:55;58;45;28
24012;PMS7003;12220;50.194;18.948;2022-11-15T10:13:02;64;50;31
24012;PMS7003;12220;50.194;18.948;2022-11-15T10:15:12;65;51;32
24012;PMS7003;12220;50.194;18.948;2022-11-15T10:17:33;65;53;32
24012;PMS7003;12220;50.194;18.948;2022-11-15T10:19:54;73;54;32
24012;PMS7003;12220;50.194;18.948;2022-11-15T10:24:34;61;47;28
24012;PMS7003;12220;50.194;18.948;2022-11-15T10:26:45;66;51;32
24012;PMS7003;12220;50.194;18.948;2022-11-15T10:28:49;70;52;31
24012;PMS7003;12220;50.194;18.948;2022-11-15T10:30:51;59;47;31
24012;PMS7003;12220;50.194;18.948;2022-11-15T10:32:54;61;44;26
24012;PMS7003;12220;50.194;18.948;2022-11-15T10:34:55;60;45;28
24012;PMS7003;12220;50.194;18.948;2022-11-15T10:36:57;62;48;29
24012;PMS7003;12220;50.194;18.948;2022-11-15T10:39:02;54;43;29
24012;PMS7003;12220;50.194;18.948;2022-11-15T10:41:11;64;50;30
24012;PMS7003;12220;50.194;18.948;2022-11-15T10:43:14;67;51;32
24012;PMS7003;12220;50.194;18.948;2022-11-15T10:45:27;62;47;29
24012;PMS7003;12220;50.194;18.948;2022-11-15T10:47:30;58;46;32
24012;PMS7003;12220;50.194;18.948;2022-11-15T10:49:33;55;43;29
24012;PMS7003;12220;50.194;18.948;2022-11-15T10:51:35;65;50;30
24012;PMS7003;12220;50.194;18.948;2022-11-15T10:53:43;62;48;30
24012;PMS7003;12220;50.194;18.948;2022-11-15T10:55:47;62;48;30
24012;PMS7003;12220;50.194;18.948;2022-11-15T10:57:55;60;49;31
24012;PMS7003;12220;50.194;18.948;2022-11-15T11:02:38;64;51;30
24012;PMS7003;12220;50.194;18.948;2022-11-15T11:04:52;64;50;30
24012;PMS7003;12220;50.194;18.948;2022-11-15T11:06:54;65;51;30
24012;PMS7003;12220;50.194;18.948;2022-11-15T11:11:06;64;47;29
24012;PMS7003;12220;50.194;18.948;2022-11-15T11:13:12;62;47;27
24012;PMS7003;12220;50.194;18.948;2022-11-15T11:15:29;62;48;29
24012;PMS7003;12220;50.194;18.948;2022-11-15T11:19:48;62;49;30
24012;PMS7003;12220;50.194;18.948;2022-11-15T11:21:59;63;49;31
24012;PMS7003;12220;50.194;18.948;2022-11-15T11:31:00;62;49;28
24012;PMS7003;12220;50.194;18.948;2022-11-15T11:33:17;62;47;29
24012;PMS7003;12220;50.194;18.948;2022-11-15T11:35:45;70;53;32
24012;PMS7003;12220;50.194;18.948;2022-11-15T11:38:10;64;51;30
24012;PMS7003;12220;50.194;18.948;2022-11-15T11:40:24;61;44;28
24012;PMS7003;12220;50.194;18.948;2022-11-15T11:42:46;67;49;31
24012;PMS7003;12220;50.194;18.948;2022-11-15T11:47:30;70;49;32
24012;PMS7003;12220;50.194;18.948;2022-11-15T11:51:51;64;48;30
24012;PMS7003;12220;50.194;18.948;2022-11-15T11:54:06;67;52;30
24012;PMS7003;12220;50.194;18.948;2022-11-15T11:56:32;65;49;31
24012;PMS7003;12220;50.194;18.948;2022-11-15T11:58:33;66;53;32
24012;PMS7003;12220;50.194;18.948;2022-11-15T12:00:41;70;56;33
24012;PMS7003;12220;50.194;18.948;2022-11-15T12:05:26;59;48;31
24012;PMS7003;12220;50.194;18.948;2022-11-15T12:07:41;62;49;31
24012;PMS7003;12220;50.194;18.948;2022-11-15T12:09:50;65;47;29
24012;PMS7003;12220;50.194;18.948;2022-11-15T12:12:05;65;51;33
24012;PMS7003;12220;50.194;18.948;2022-11-15T12:14:16;60;46;31
24012;PMS7003;12220;50.194;18.948;2022-11-15T12:16:27;56;45;27
24012;PMS7003;12220;50.194;18.948;2022-11-15T12:18:30;60;46;28
24012;PMS7003;12220;50.194;18.948;2022-11-15T12:20:35;57;43;27
24012;PMS7003;12220;50.194;18.948;2022-11-15T12:22:42;60;45;30
24012;PMS7003;12220;50.194;18.948;2022-11-15T12:29:15;65;51;32
24012;PMS7003;12220;50.194;18.948;2022-11-15T12:33:51;68;50;32
24012;PMS7003;12220;50.194;18.948;2022-11-15T12:35:58;61;46;28
24012;PMS7003;12220;50.194;18.948;2022-11-15T12:38:08;50;39;25
24012;PMS7003;12220;50.194;18.948;2022-11-15T12:49:56;53;43;28
24012;PMS7003;12220;50.194;18.948;2022-11-15T12:53:57;50;39;27
24012;PMS7003;12220;50.194;18.948;2022-11-15T12:58:26;51;43;26
24012;PMS7003;12220;50.194;18.948;2022-11-15T13:00:37;49;37;23
24012;PMS7003;12220;50.194;18.948;2022-11-15T13:02:39;46;37;23
24012;PMS7003;12220;50.194;18.948;2022-11-15T13:04:43;47;34;23
24012;PMS7003;12220;50.194;18.948;2022-11-15T13:06:51;51;40;23
24012;PMS7003;12220;50.194;18.948;2022-11-15T13:08:59;50;39;26
24012;PMS7003;12220;50.194;18.948;2022-11-15T13:11:27;39;33;21
24012;PMS7003;12220;50.194;18.948;2022-11-15T13:13:12;42;34;22
24012;PMS7003;12220;50.194;18.948;2022-11-15T13:17:37;34;26;16
24012;PMS7003;12220;50.194;18.948;2022-11-15T13:19:40;40;34;22
24012;PMS7003;12220;50.194;18.948;2022-11-15T13:21:47;38;31;21
24012;PMS7003;12220;50.194;18.948;2022-11-15T13:24:01;60;47;28
24012;PMS7003;12220;50.194;18.948;2022-11-15T13:26:12;55;42;27
24012;PMS7003;12220;50.194;18.948;2022-11-15T13:28:20;50;42;26
24012;PMS7003;12220;50.194;18.948;2022-11-15T13:30:27;62;47;28
24012;PMS7003;12220;50.194;18.948;2022-11-15T13:32:31;61;48;31
24012;PMS7003;12220;50.194;18.948;2022-11-15T13:34:33;64;51;33
24012;PMS7003;12220;50.194;18.948;2022-11-15T13:36:36;60;47;29
24012;PMS7003;12220;50.194;18.948;2022-11-15T13:38:38;60;48;31
24012;PMS7003;12220;50.194;18.948;2022-11-15T13:40:41;58;47;30
24012;PMS7003;12220;50.194;18.948;2022-11-15T13:42:46;65;51;31
24012;PMS7003;12220;50.194;18.948;2022-11-15T13:49:07;60;46;28
24012;PMS7003;12220;50.194;18.948;2022-11-15T13:53:25;52;42;28
24012;PMS7003;12220;50.194;18.948;2022-11-15T13:55:26;56;43;28
24012;PMS7003;12220;50.194;18.948;2022-11-15T13:57:40;48;39;27
24012;PMS7003;12220;50.194;18.948;2022-11-15T13:59:45;57;46;29
24012;PMS7003;12220;50.194;18.948;2022-11-15T14:01:50;56;46;29
24012;PMS7003;12220;50.194;18.948;2022-11-15T14:03:59;66;51;34
24012;PMS7003;12220;50.194;18.948;2022-11-15T14:06:03;70;55;33
24012;PMS7003;12220;50.194;18.948;2022-11-15T14:10:25;72;61;37
24012;PMS7003;12220;50.194;18.948;2022-11-15T14:12:35;78;68;39
24012;PMS7003;12220;50.194;18.948;2022-11-15T14:14:44;68;56;33
24012;PMS7003;12220;50.194;18.948;2022-11-15T14:16:48;70;56;33
24012;PMS7003;12220;50.194;18.948;2022-11-15T14:18:53;72;57;35
24012;PMS7003;12220;50.194;18.948;2022-11-15T14:21:05;79;66;35
24012;PMS7003;12220;50.194;18.948;2022-11-15T14:25:20;77;62;34
24012;PMS7003;12220;50.194;18.948;2022-11-15T14:27:25;73;58;34
24012;PMS7003;12220;50.194;18.948;2022-11-15T14:29:29;73;61;37
24012;PMS7003;12220;50.194;18.948;2022-11-15T14:31:30;71;57;33
24012;PMS7003;12220;50.194;18.948;2022-11-15T14:33:37;72;59;38
24012;PMS7003;12220;50.194;18.948;2022-11-15T14:35:39;73;58;35
24012;PMS7003;12220;50.194;18.948;2022-11-15T14:37:41;73;62;34
24012;PMS7003;12220;50.194;18.948;2022-11-15T14:39:42;72;57;35
24012;PMS7003;12220;50.194;18.948;2022-11-15T14:41:49;70;56;33
24012;PMS7003;12220;50.194;18.948;2022-11-15T14:43:51;63;47;31
24012;PMS7003;12220;50.194;18.948;2022-11-15T14:45:53;56;44;32
24012;PMS7003;12220;50.194;18.948;2022-11-15T14:47:54;70;51;30
24012;PMS7003;12220;50.194;18.948;2022-11-15T14:50:04;70;53;33
24012;PMS7003;12220;50.194;18.948;2022-11-15T14:54:19;77;64;34
24012;PMS7003;12220;50.194;18.948;2022-11-15T14:56:21;80;67;38
24012;PMS7003;12220;50.194;18.948;2022-11-15T14:58:24;76;62;35
24012;PMS7003;12220;50.194;18.948;2022-11-15T15:00:26;74;60;33
24012;PMS7003;12220;50.194;18.948;2022-11-15T15:02:27;80;58;33
24012;PMS7003;12220;50.194;18.948;2022-11-15T15:04:28;71;59;34
24012;PMS7003;12220;50.194;18.948;2022-11-15T15:06:40;73;58;33
24012;PMS7003;12220;50.194;18.948;2022-11-15T15:08:42;74;55;33
24012;PMS7003;12220;50.194;18.948;2022-11-15T15:10:44;75;60;34
24012;PMS7003;12220;50.194;18.948;2022-11-15T15:12:46;74;60;34